Terminal Aerodrome Forecast
Issued by NWS Spokane, WA

Home | Current Version | Previous Version | Text Only | Print | Product List | Glossary On
Versions: 1 2 3 4 5 6 7 8 9 10 11 12 13 14 15 16 17 18 19 20 21 22 23 24 25 26 27 28 29 30
541
FTUS46 KOTX 291739
TAFLWS
TAF
KLWS 291739Z 2918/3018 11009KT P6SM -RA OVC050
     FM292000 13007KT P6SM -RA SCT030 OVC040
     FM300000 17007KT P6SM -RA OVC035
     FM300600 25004KT P6SM SCT008 BKN040
     FM301200 27007KT P6SM SCT008 BKN080 OVC100=

USA.gov is the U.S. government's official web portal to all federal, state and local government web resources and services.